Time;durP1;ratioP1;P1;durP2;ratioP2;P2;SDS_P1;SDS_P2;PMS_P1;PMS_P2;Temp;Humidity;BMP_temperature;BMP_pressure;BME280_temperature;BME280_humidity;BME280_pressure;Samples;Min_cycle;Max_cycle;Signal;HPM_P1;HPM_P2
2022/10/04 00:00:07;;;;;;;12.73;5.43;;;;;;;11.39;100.00;102370.78;4955478;28;20035;-35
2022/10/04 00:02:33;;;;;;;9.10;4.57;;;;;;;11.48;100.00;102387.72;4990021;28;20037;-33
2022/10/04 00:05:04;;;;;;;7.30;5.00;;;;;;;11.46;100.00;102384.38;5050737;28;20029;-34
2022/10/04 00:07:44;;;;;;;12.82;4.85;;;;;;;11.42;100.00;102383.97;5052038;28;20389;-34
2022/10/04 00:10:24;;;;;;;9.23;5.13;;;;;;;11.38;100.00;102373.72;5052466;28;20377;-35
2022/10/04 00:12:54;;;;;;;7.55;4.90;;;;;;;11.41;100.00;102379.53;5052744;28;20051;-35
2022/10/04 00:15:38;;;;;;;7.50;4.43;;;;;;;11.44;100.00;102368.31;5052293;28;20033;-35
2022/10/04 00:18:15;;;;;;;11.23;4.90;;;;;;;11.37;100.00;102359.34;5052187;28;20020;-35
2022/10/04 00:20:49;;;;;;;13.00;6.15;;;;;;;11.42;100.00;102369.53;5052057;28;20017;-35
2022/10/04 00:23:23;;;;;;;7.43;4.60;;;;;;;11.41;100.00;102360.59;5056647;28;20086;-35
2022/10/04 00:26:14;;;;;;;9.45;5.22;;;;;;;11.41;100.00;102366.00;5055533;28;20362;-35
2022/10/04 00:28:45;;;;;;;8.23;5.50;;;;;;;11.39;100.00;102362.66;5056219;28;20025;-35
2022/10/04 00:31:25;;;;;;;8.27;4.93;;;;;;;11.43;100.00;102353.13;5056053;28;20033;-35
2022/10/04 00:34:02;;;;;;;8.65;4.80;;;;;;;11.40;100.00;102358.09;5055876;28;20075;-35
2022/10/04 00:36:28;;;;;;;10.55;5.55;;;;;;;11.40;100.00;102339.13;5056036;28;20040;-36
2022/10/04 00:39:08;;;;;;;7.77;5.30;;;;;;;11.47;100.00;102353.56;5056105;28;20458;-35
2022/10/04 00:41:51;;;;;;;9.77;4.82;;;;;;;11.40;100.00;102348.09;5055288;28;20032;-35
2022/10/04 00:44:30;;;;;;;8.27;5.30;;;;;;;11.40;100.00;102344.53;5056033;28;20444;-36
2022/10/04 00:47:00;;;;;;;10.68;5.47;;;;;;;11.39;100.00;102351.84;5037258;28;20430;-35
2022/10/04 00:49:34;;;;;;;8.73;5.20;;;;;;;11.38;100.00;102357.47;5055920;28;20343;-35
2022/10/04 00:52:06;;;;;;;10.00;5.05;;;;;;;11.35;100.00;102343.25;5055697;28;20107;-36
2022/10/04 00:54:40;;;;;;;11.48;5.65;;;;;;;11.36;100.00;102346.81;5055799;28;20106;-35
2022/10/04 00:57:21;;;;;;;8.82;4.72;;;;;;;11.36;100.00;102346.81;5038254;28;20036;-36
2022/10/04 00:59:51;;;;;;;7.80;4.80;;;;;;;11.31;100.00;102331.16;5055980;28;20064;-35
2022/10/04 01:02:25;;;;;;;6.55;4.85;;;;;;;11.31;100.00;102317.63;5054903;28;20086;-35
2022/10/04 01:05:09;;;;;;;7.25;4.60;;;;;;;11.29;100.00;102317.00;5055045;28;20025;-36
2022/10/04 01:07:40;;;;;;;11.00;4.93;;;;;;;11.28;100.00;102322.63;5037539;28;20060;-36
2022/10/04 01:10:26;;;;;;;9.32;4.85;;;;;;;11.24;100.00;102316.75;5055490;28;20107;-36
2022/10/04 01:12:54;;;;;;;9.25;4.88;;;;;;;11.24;100.00;102318.63;5055291;28;20461;-36
2022/10/04 01:15:49;;;;;;;9.52;5.18;;;;;;;11.23;100.00;102312.38;5055335;28;20033;-36
2022/10/04 01:18:17;;;;;;;10.02;5.00;;;;;;;11.18;100.00;102322.16;5054866;28;20044;-35
2022/10/04 01:20:54;;;;;;;12.77;5.63;;;;;;;11.09;100.00;102308.75;5054864;28;20029;-36
2022/10/04 01:23:40;;;;;;;10.90;5.53;;;;;;;11.11;100.00;102315.84;5055040;28;20472;-35
2022/10/04 01:26:28;;;;;;;10.90;5.30;;;;;;;11.05;100.00;102317.47;5054438;28;20421;-35
2022/10/04 01:28:58;;;;;;;12.40;5.53;;;;;;;10.98;100.00;102312.03;5055046;28;20274;-36
2022/10/04 01:31:25;;;;;;;12.65;5.40;;;;;;;10.88;100.00;102303.38;5054404;28;20461;-35
2022/10/04 01:33:51;;;;;;;8.35;4.72;;;;;;;10.90;100.00;102311.34;5053625;28;20028;-36
2022/10/04 01:36:16;;;;;;;8.35;4.88;;;;;;;10.89;100.00;102301.53;5054247;28;20037;-35
2022/10/04 01:38:42;;;;;;;8.73;5.57;;;;;;;10.90;100.00;102306.75;5054396;28;20210;-35
2022/10/04 01:41:10;;;;;;;8.40;4.97;;;;;;;10.72;100.00;102285.59;5054737;28;20033;-35
2022/10/04 01:43:41;;;;;;;8.85;5.65;;;;;;;10.87;100.00;102303.59;5055045;28;20029;-35
2022/10/04 01:46:12;;;;;;;7.43;4.90;;;;;;;10.90;100.00;102290.50;5053981;28;20095;-36
2022/10/04 01:48:41;;;;;;;7.93;5.13;;;;;;;10.86;100.00;102291.94;5054305;28;20128;-35
2022/10/04 01:51:18;;;;;;;10.27;5.55;;;;;;;10.87;100.00;102295.47;5054212;28;20124;-35
2022/10/04 01:53:53;;;;;;;9.68;5.40;;;;;;;10.85;100.00;102284.03;5054119;28;20033;-36
2022/10/04 01:56:41;;;;;;;8.45;5.30;;;;;;;10.88;100.00;102289.03;5053805;28;20035;-35
2022/10/04 01:59:20;;;;;;;8.23;5.20;;;;;;;10.85;100.00;102290.28;4972751;28;20081;-35
2022/10/04 02:01:54;;;;;;;8.80;5.57;;;;;;;10.77;100.00;102279.59;4973185;28;20411;-36
2022/10/04 02:04:33;;;;;;;9.82;5.93;;;;;;;10.81;100.00;102283.56;4973103;28;20047;-35
2022/10/04 02:06:59;;;;;;;9.20;5.50;;;;;;;10.81;100.00;102279.00;4973108;28;20041;-36
2022/10/04 02:09:31;;;;;;;8.70;5.47;;;;;;;10.78;100.00;102274.00;4973292;28;20134;-35
2022/10/04 02:11:58;;;;;;;6.78;4.72;;;;;;;10.76;100.00;102265.22;4973083;28;20516;-35
2022/10/04 02:14:28;;;;;;;9.57;5.80;;;;;;;10.68;100.00;102261.81;4972724;28;20034;-35
2022/10/04 02:16:53;;;;;;;10.60;5.80;;;;;;;10.66;100.00;102253.09;4972695;28;20042;-36
2022/10/04 02:19:23;;;;;;;9.85;5.95;;;;;;;10.67;100.00;102242.06;4973428;28;20061;-35
2022/10/04 02:21:50;;;;;;;12.40;6.07;;;;;;;10.70;100.00;102232.72;4973229;28;20129;-35
2022/10/04 02:24:18;;;;;;;10.82;5.82;;;;;;;10.66;100.00;102232.28;4973289;28;20039;-35
2022/10/04 02:26:50;;;;;;;11.43;6.25;;;;;;;10.64;100.00;102238.91;4972638;28;20447;-36
2022/10/04 02:29:18;;;;;;;8.98;5.57;;;;;;;10.52;100.00;102225.09;4973003;28;20116;-35
2022/10/04 02:34:30;;;;;;;11.68;6.75;;;;;;;10.52;100.00;102231.34;4973153;28;20089;-35
2022/10/04 02:36:55;;;;;;;;;;;;;;;10.63;100.00;102229.94;5034037;28;20512;-35
2022/10/04 02:39:25;;;;;;;9.05;6.03;;;;;;;10.46;100.00;102218.63;5053332;28;19912;-35
2022/10/04 02:41:55;;;;;;;10.68;6.03;;;;;;;10.45;100.00;102218.81;5052883;28;20036;-35
2022/10/04 02:44:26;;;;;;;11.05;6.53;;;;;;;10.41;100.00;102220.25;5053164;28;20033;-35
2022/10/04 02:47:12;;;;;;;11.75;6.90;;;;;;;10.38;100.00;102210.63;5052833;28;20025;-35
2022/10/04 02:49:49;;;;;;;11.57;6.13;;;;;;;10.36;100.00;102204.59;5053631;28;20032;-35
2022/10/04 02:52:25;;;;;;;12.50;6.35;;;;;;;10.39;100.00;102197.94;5053655;28;20048;-35
2022/10/04 02:55:01;;;;;;;11.10;6.53;;;;;;;10.35;100.00;102191.28;5053589;28;20036;-35
2022/10/04 02:57:29;;;;;;;10.88;7.13;;;;;;;10.31;100.00;102188.13;5053084;28;20017;-35
2022/10/04 03:00:26;;;;;;;10.00;7.28;;;;;;;10.35;100.00;102180.47;5052636;28;20124;-35
2022/10/04 03:03:15;;;;;;;13.55;7.15;;;;;;;10.23;100.00;102161.19;5052985;28;20033;-35
2022/10/04 03:05:46;;;;;;;11.50;7.20;;;;;;;10.26;100.00;102177.06;5053173;28;20029;-35
2022/10/04 03:08:12;;;;;;;12.73;7.18;;;;;;;10.18;100.00;102169.06;5053112;28;20108;-35
2022/10/04 03:10:38;;;;;;;;;;;;;;;10.34;100.00;102185.00;5053701;28;20373;-35
2022/10/04 03:13:03;;;;;;;9.25;6.53;;;;;;;10.22;100.00;102170.34;5053308;28;19913;-35
2022/10/04 03:15:30;;;;;;;13.27;7.45;;;;;;;10.21;100.00;102168.69;5052799;28;20032;-35
2022/10/04 03:17:55;;;;;;;;;;;;;;;10.27;100.00;102173.34;5054031;28;20025;-35
2022/10/04 03:20:20;;;;;;;13.57;6.87;;;;;;;10.17;100.00;102167.41;5053013;28;19913;-35
2022/10/04 03:22:51;;;;;;;12.02;6.63;;;;;;;10.11;100.00;102168.19;5034907;28;20375;-35
2022/10/04 03:25:21;;;;;;;7.97;6.05;;;;;;;10.03;100.00;102153.78;5052652;28;20460;-36
2022/10/04 03:27:49;;;;;;;12.88;7.25;;;;;;;10.04;100.00;102158.13;5052661;28;20078;-36
2022/10/04 03:30:15;;;;;;;12.10;7.53;;;;;;;9.95;100.00;102148.50;5052509;28;20041;-36
2022/10/04 03:32:41;;;;;;;11.80;7.47;;;;;;;9.96;100.00;102149.34;5052850;28;20038;-36
2022/10/04 03:35:35;;;;;;;12.45;7.63;;;;;;;10.02;100.00;102159.38;5052523;28;20493;-36
2022/10/04 03:38:07;;;;;;;15.80;7.80;;;;;;;9.92;100.00;102143.50;5052400;28;20116;-36
2022/10/04 03:40:33;;;;;;;12.45;6.93;;;;;;;9.93;100.00;102153.28;5053224;28;20372;-36
2022/10/04 03:43:02;;;;;;;13.98;8.10;;;;;;;9.86;100.00;102155.09;5052810;28;20087;-36
2022/10/04 03:45:28;;;;;;;10.45;7.03;;;;;;;9.85;100.00;102156.09;5052985;28;20031;-35
2022/10/04 03:48:00;;;;;;;11.07;7.30;;;;;;;9.74;100.00;102146.66;5052639;28;20123;-36
2022/10/04 03:50:32;;;;;;;13.65;7.65;;;;;;;9.76;100.00;102149.16;5052668;28;20448;-36
2022/10/04 03:53:04;;;;;;;12.57;7.32;;;;;;;9.66;100.00;102132.44;5052720;28;20036;-35
2022/10/04 03:55:37;;;;;;;9.50;6.95;;;;;;;9.70;100.00;102136.44;5053067;28;20436;-37
2022/10/04 03:58:04;;;;;;;12.32;7.55;;;;;;;9.71;100.00;102140.81;5056734;28;20071;-35
2022/10/04 04:00:30;;;;;;;12.02;7.90;;;;;;;9.66;100.00;102133.31;5038666;28;20113;-36
2022/10/04 04:02:59;;;;;;;12.65;7.97;;;;;;;9.60;100.00;102122.41;5056439;28;20025;-36
2022/10/04 04:05:39;;;;;;;12.15;7.63;;;;;;;9.68;100.00;102133.09;5055996;28;20028;-36
2022/10/04 04:08:31;;;;;;;11.77;7.55;;;;;;;9.68;100.00;102130.41;5056331;28;20029;-36
2022/10/04 04:10:58;;;;;;;13.07;7.72;;;;;;;9.62;100.00;102140.13;5056578;28;20025;-36
2022/10/04 04:13:26;;;;;;;12.10;7.50;;;;;;;9.60;100.00;102142.16;5056422;28;20381;-40
2022/10/04 04:15:59;;;;;;;13.85;7.72;;;;;;;9.52;100.00;102124.22;5056045;28;20032;-35
2022/10/04 04:18:28;;;;;;;10.57;7.13;;;;;;;9.53;100.00;102143.97;5055946;28;20025;-35
2022/10/04 04:20:58;;;;;;;14.23;7.18;;;;;;;9.58;100.00;102143.41;5055926;28;20113;-35
2022/10/04 04:24:04;;;;;;;12.40;7.82;;;;;;;9.60;100.00;102139.47;5055627;28;20040;-35
2022/10/04 04:26:44;;;;;;;11.60;7.63;;;;;;;9.55;100.00;102139.19;4969479;28;20023;-35
2022/10/04 04:29:09;;;;;;;9.60;7.78;;;;;;;9.61;100.00;102138.41;4974944;28;20067;-34
2022/10/04 04:31:47;;;;;;;13.40;7.82;;;;;;;9.47;100.00;102115.88;4974601;28;20054;-34
2022/10/04 04:34:23;;;;;;;12.60;7.30;;;;;;;9.54;100.00;102140.22;4974928;28;20042;-34
2022/10/04 04:36:49;;;;;;;;;;;;;;;9.65;100.00;102138.88;4975436;28;20117;-34
2022/10/04 04:42:09;;;;;;;11.98;8.13;;;;;;;9.59;100.00;102131.56;4974883;28;20141;-34
2022/10/04 04:44:37;;;;;;;11.80;7.63;;;;;;;9.55;100.00;102131.94;4974922;28;20394;-34
2022/10/04 04:47:26;;;;;;;12.90;7.75;;;;;;;9.64;100.00;102127.25;4974411;28;20051;-34
2022/10/04 04:49:54;;;;;;;11.10;7.25;;;;;;;9.65;100.00;102125.38;4974418;28;20570;-34
2022/10/04 04:52:25;;;;;;;13.15;7.80;;;;;;;9.67;100.00;102126.03;4974551;28;20050;-34
2022/10/04 04:54:51;;;;;;;14.80;8.95;;;;;;;9.65;100.00;102120.81;4974594;28;20483;-34
2022/10/04 04:57:17;;;;;;;;;;;;;;;9.75;100.00;102115.91;4974590;28;20108;-34
2022/10/04 04:59:51;;;;;;;13.45;7.88;;;;;;;9.61;100.00;102110.59;4988090;28;19913;-34
2022/10/04 05:02:26;;;;;;;12.38;7.43;;;;;;;9.69;100.00;102123.97;5055986;28;20028;-34
2022/10/04 05:05:13;;;;;;;12.32;7.32;;;;;;;9.73;100.00;102133.34;5056134;28;20118;-34
2022/10/04 05:07:42;;;;;;;9.90;6.65;;;;;;;9.75;100.00;102120.47;5053999;28;20044;-34
2022/10/04 05:10:30;;;;;;;12.52;7.57;;;;;;;9.71;100.00;102124.59;5055354;28;20114;-34
2022/10/04 05:12:58;;;;;;;12.43;6.45;;;;;;;9.70;100.00;102125.63;5055512;28;20025;-35
2022/10/04 05:15:25;;;;;;;10.95;7.40;;;;;;;9.67;100.00;102117.94;5055078;28;20025;-35
2022/10/04 05:17:51;;;;;;;17.33;8.23;;;;;;;9.59;100.00;102112.66;5055529;28;20108;-35
2022/10/04 05:20:17;;;;;;;13.52;8.38;;;;;;;9.63;100.00;102108.53;5055316;28;20106;-35
2022/10/04 05:22:46;;;;;;;;;;;;;;;9.66;100.00;102108.13;5055953;28;20029;-34
2022/10/04 05:25:32;;;;;;;13.95;7.82;;;;;;;9.44;100.00;102096.53;5054590;28;20340;-34
2022/10/04 05:27:58;;;;;;;15.85;8.38;;;;;;;9.48;100.00;102119.41;5054695;28;20116;-34
2022/10/04 05:30:41;;;;;;;12.32;7.50;;;;;;;9.51;100.00;102121.72;5054603;28;20032;-35
2022/10/04 05:33:12;;;;;;;15.23;7.63;;;;;;;9.41;100.00;102124.72;5055196;28;20127;-35
2022/10/04 05:36:06;;;;;;;15.18;9.05;;;;;;;9.43;100.00;102124.56;5054867;28;20029;-35
2022/10/04 05:38:50;;;;;;;13.07;7.65;;;;;;;9.44;100.00;102134.31;5054314;28;20044;-35
2022/10/04 05:41:33;;;;;;;13.88;8.43;;;;;;;9.36;100.00;102129.88;5054563;28;20489;-35
2022/10/04 05:43:58;;;;;;;11.18;7.65;;;;;;;9.37;100.00;102131.56;5054563;28;20111;-35
2022/10/04 05:46:27;;;;;;;11.90;7.88;;;;;;;9.32;100.00;102125.91;5054210;28;20088;-35
2022/10/04 05:49:03;;;;;;;13.75;7.97;;;;;;;9.32;100.00;102127.75;5054698;28;20052;-35
2022/10/04 05:51:36;;;;;;;14.38;8.27;;;;;;;9.33;100.00;102130.25;5054250;28;20045;-35
2022/10/04 05:54:02;;;;;;;12.07;7.63;;;;;;;9.31;100.00;102139.56;5054662;28;20033;-34
2022/10/04 05:56:46;;;;;;;12.85;8.32;;;;;;;9.33;100.00;102146.47;5054242;28;20033;-35
2022/10/04 05:59:26;;;;;;;11.35;7.55;;;;;;;9.30;100.00;102144.13;5054669;28;20032;-35
2022/10/04 06:01:54;;;;;;;12.45;8.32;;;;;;;9.31;100.00;102144.97;5054652;28;20040;-35
2022/10/04 06:04:32;;;;;;;12.07;8.02;;;;;;;9.30;100.00;102141.44;5054545;28;20175;-35
2022/10/04 06:07:02;;;;;;;12.60;8.15;;;;;;;9.29;100.00;102148.69;5054089;28;20087;-35
2022/10/04 06:09:44;;;;;;;10.75;7.18;;;;;;;9.29;100.00;102143.31;5053962;28;20075;-35
2022/10/04 06:12:55;;;;;;;10.48;7.63;;;;;;;9.32;100.00;102146.63;5054282;28;20033;-34
2022/10/04 06:15:30;;;;;;;12.32;7.78;;;;;;;9.36;100.00;102142.53;4992319;28;20455;-34
2022/10/04 06:18:10;;;;;;;12.65;7.72;;;;;;;9.35;100.00;102146.25;4992341;28;20109;-35
2022/10/04 06:20:44;;;;;;;11.40;6.95;;;;;;;9.35;100.00;102135.47;4992232;28;20038;-35
2022/10/04 06:23:14;;;;;;;11.52;7.75;;;;;;;9.41;100.00;102140.91;4992629;28;20051;-35
2022/10/04 06:26:05;;;;;;;12.48;7.45;;;;;;;9.48;100.00;102149.94;4991894;28;20136;-35
2022/10/04 06:28:41;;;;;;;15.00;7.78;;;;;;;9.40;100.00;102133.84;4953425;29;20078;-35
2022/10/04 06:31:25;;;;;;;14.07;7.32;;;;;;;9.50;100.00;102139.78;4953417;29;20035;-35
2022/10/04 06:34:23;;;;;;;11.48;6.80;;;;;;;9.57;100.00;102134.47;4953675;29;20047;-34
2022/10/04 06:37:01;;;;;;;11.35;6.65;;;;;;;9.63;100.00;102136.38;4953460;29;20031;-34
2022/10/04 06:39:53;;;;;;;15.50;6.82;;;;;;;9.68;100.00;102136.63;4953448;29;20047;-34
2022/10/04 06:42:32;;;;;;;13.73;7.20;;;;;;;9.64;100.00;102126.41;4953576;29;20118;-34
2022/10/04 06:45:16;;;;;;;9.30;6.30;;;;;;;9.70;100.00;102134.56;4954527;28;20023;-34
2022/10/04 06:48:00;;;;;;;11.32;6.40;;;;;;;9.71;100.00;102130.00;5011326;28;20380;-35
2022/10/04 06:50:50;;;;;;;10.10;5.68;;;;;;;9.71;100.00;102125.47;5011085;28;20046;-35
2022/10/04 06:53:33;;;;;;;8.73;5.25;;;;;;;9.67;100.00;102113.38;5011636;28;20042;-35
2022/10/04 06:56:23;;;;;;;9.82;5.97;;;;;;;9.68;100.00;102125.00;5011395;28;20129;-34
2022/10/04 06:59:12;;;;;;;10.27;5.57;;;;;;;9.70;100.00;102129.16;5011952;28;20462;-36
2022/10/04 07:01:49;;;;;;;9.30;6.07;;;;;;;9.57;100.00;102126.34;5011137;28;20042;-35
2022/10/04 07:04:56;;;;;;;6.22;4.60;;;;;;;9.70;100.00;102122.94;5011903;28;20084;-35
2022/10/04 07:07:34;;;;;;;9.68;5.15;;;;;;;9.64;100.00;102124.53;4972324;28;20038;-35
2022/10/04 07:10:23;;;;;;;10.25;5.03;;;;;;;9.63;100.00;102122.03;4972100;28;20042;-35
2022/10/04 07:13:17;;;;;;;6.78;4.90;;;;;;;9.70;100.00;102120.22;4972136;28;20114;-35
2022/10/04 07:16:04;;;;;;;9.13;4.72;;;;;;;9.69;100.00;102110.47;4896333;29;20505;-35
2022/10/04 07:18:53;;;;;;;10.10;5.75;;;;;;;9.74;100.00;102119.66;4895977;29;20048;-35
2022/10/04 07:21:20;;;;;;;11.43;5.28;;;;;;;9.79;100.00;102110.97;4895958;29;20040;-35
2022/10/04 07:23:52;;;;;;;9.13;4.50;;;;;;;9.80;100.00;102107.22;4896003;29;20101;-35
2022/10/04 07:26:40;;;;;;;7.35;4.82;;;;;;;9.89;100.00;102114.16;4895632;29;20476;-35
2022/10/04 07:29:27;;;;;;;8.63;4.72;;;;;;;9.96;100.00;102112.38;4895982;29;20032;-35
2022/10/04 07:32:04;;;;;;;9.13;4.57;;;;;;;10.04;100.00;102117.59;4897778;29;20043;-35
2022/10/04 07:34:36;;;;;;;9.55;5.07;;;;;;;10.10;100.00;102109.75;4899911;29;20053;-35
2022/10/04 07:37:13;;;;;;;12.73;5.07;;;;;;;10.16;100.00;102111.66;4899904;29;20048;-35
2022/10/04 07:39:47;;;;;;;;;;;;;;;10.25;100.00;102113.22;4900030;29;20382;-35
2022/10/04 07:42:20;;;;;;;10.32;5.28;;;;;;;10.34;100.00;102125.53;4899264;29;19911;-35
2022/10/04 07:45:14;;;;;;;9.80;4.63;;;;;;;10.40;100.00;102123.94;4976138;28;20035;-35
2022/10/04 07:47:41;;;;;;;9.77;4.97;;;;;;;10.50;100.00;102122.53;4976100;28;20456;-35
2022/10/04 07:50:20;;;;;;;9.90;5.00;;;;;;;10.56;100.00;102112.78;4975735;28;20106;-35
2022/10/04 07:52:47;;;;;;;8.45;5.28;;;;;;;10.73;100.00;102118.69;5021014;28;20053;-36
2022/10/04 07:55:41;;;;;;;11.18;5.18;;;;;;;10.81;100.00;102115.81;5056748;28;20033;-35
2022/10/04 07:58:24;;;;;;;10.05;5.57;;;;;;;10.82;100.00;102101.22;5056809;28;20052;-35
2022/10/04 08:01:28;;;;;;;13.50;5.45;;;;;;;10.99;100.00;102107.97;5057100;28;20025;-35
2022/10/04 08:04:27;;;;;;;10.45;5.90;;;;;;;10.98;100.00;102090.06;4975206;28;20073;-34
2022/10/04 08:07:13;;;;;;;10.68;5.63;;;;;;;11.21;100.00;102107.81;4898998;29;20406;-34
2022/10/04 08:10:06;;;;;;;10.35;5.95;;;;;;;11.34;100.00;102102.44;4899049;29;20041;-34
2022/10/04 08:12:46;;;;;;;8.98;5.15;;;;;;;11.47;100.00;102104.34;4899383;29;20403;-35
2022/10/04 08:15:22;;;;;;;9.63;5.65;;;;;;;11.53;100.00;102108.94;4899066;29;20040;-35
2022/10/04 08:18:02;;;;;;;10.60;4.83;;;;;;;11.62;100.00;102101.44;4899267;29;20509;-35
2022/10/04 08:20:38;;;;;;;13.35;5.47;;;;;;;11.70;99.73;102096.63;4899164;29;20166;-35
2022/10/04 08:23:13;;;;;;;8.25;5.28;;;;;;;11.77;99.26;102096.66;4899374;29;20120;-35
2022/10/04 08:25:49;;;;;;;9.90;5.45;;;;;;;11.89;98.66;102089.59;4899052;29;20142;-35
2022/10/04 08:31:28;;;;;;;7.80;4.97;;;;;;;12.18;97.76;102098.31;4898961;29;20107;-35
2022/10/04 08:34:24;;;;;;;7.07;4.55;;;;;;;12.28;97.04;102096.84;4898904;29;20045;-35
2022/10/04 08:37:16;;;;;;;8.98;4.85;;;;;;;12.33;96.41;102104.34;4898713;29;20103;-35
2022/10/04 08:39:56;;;;;;;10.93;5.35;;;;;;;12.33;96.14;102099.75;4904351;29;20502;-35
2022/10/04 08:43:00;;;;;;;7.88;5.15;;;;;;;12.46;96.00;102106.19;4975059;28;20041;-35
2022/10/04 08:45:43;;;;;;;9.82;4.57;;;;;;;12.57;95.44;102106.34;4936325;29;20052;-35
2022/10/04 08:48:18;;;;;;;7.35;4.63;;;;;;;12.68;94.20;102101.31;4936386;29;20039;-36
2022/10/04 08:51:15;;;;;;;10.20;5.00;;;;;;;12.75;93.71;102102.13;4935998;29;20350;-36
2022/10/04 08:53:58;;;;;;;8.65;4.95;;;;;;;12.83;93.05;102105.44;4936249;29;20075;-35
2022/10/04 08:56:48;;;;;;;7.88;4.70;;;;;;;12.92;92.75;102108.72;4936011;29;20055;-35
2022/10/04 08:59:46;;;;;;;6.72;4.78;;;;;;;12.97;91.94;102105.38;4935773;29;20036;-35
2022/10/04 09:02:23;;;;;;;11.48;4.53;;;;;;;13.05;90.78;102096.97;4936410;29;20044;-36
2022/10/04 09:05:04;;;;;;;10.20;4.57;;;;;;;13.12;90.35;102100.47;4936075;29;20497;-35
2022/10/04 09:08:25;;;;;;;10.20;5.28;;;;;;;13.26;90.60;102109.44;4936289;29;20075;-35
2022/10/04 09:11:18;;;;;;;10.75;4.93;;;;;;;13.33;89.92;102108.34;4879548;29;20239;-35
2022/10/04 09:14:13;;;;;;;11.75;5.03;;;;;;;13.38;88.67;102107.69;4879268;29;20033;-35
2022/10/04 09:16:52;;;;;;;8.63;5.13;;;;;;;13.47;89.16;102103.66;4879043;29;20174;-35
2022/10/04 09:19:45;;;;;;;8.38;5.05;;;;;;;13.63;88.70;102113.16;4879552;29;20044;-35
2022/10/04 09:22:32;;;;;;;9.40;4.95;;;;;;;13.68;88.92;102104.34;4943202;28;20046;-35
2022/10/04 09:25:22;;;;;;;10.02;5.50;;;;;;;13.79;88.29;102103.63;5013106;28;20038;-36
2022/10/04 09:28:00;;;;;;;9.18;5.28;;;;;;;13.87;87.09;102100.63;5013488;28;20127;-34
2022/10/04 09:30:40;;;;;;;11.77;5.25;;;;;;;13.95;87.48;102091.34;5013415;28;20030;-35
2022/10/04 09:33:17;;;;;;;7.03;4.80;;;;;;;14.04;86.30;102090.00;5012643;28;20029;-36
2022/10/04 09:35:49;;;;;;;10.93;5.95;;;;;;;14.11;85.65;102085.34;5012563;28;20034;-36
2022/10/04 09:38:39;;;;;;;9.85;5.15;;;;;;;14.18;85.02;102078.78;5013204;28;20026;-35
2022/10/04 09:41:42;;;;;;;8.18;5.53;;;;;;;14.37;86.00;102078.81;5029432;28;20412;-35
2022/10/04 09:44:25;;;;;;;9.85;5.75;;;;;;;14.47;84.42;102070.09;5054850;28;20036;-35
2022/10/04 09:46:54;;;;;;;9.25;5.05;;;;;;;14.55;84.78;102064.41;5054559;28;20036;-35
2022/10/04 09:49:35;;;;;;;7.68;5.28;;;;;;;14.63;84.46;102069.50;5054894;28;20035;-35
2022/10/04 09:52:30;;;;;;;9.98;5.68;;;;;;;14.73;84.07;102069.81;5054950;28;20057;-35
2022/10/04 09:55:12;;;;;;;8.43;5.72;;;;;;;14.75;83.09;102075.03;5054332;28;20039;-35
2022/10/04 09:58:02;;;;;;;11.63;5.47;;;;;;;14.82;82.56;102086.66;5037249;28;20370;-35
2022/10/04 10:00:43;;;;;;;9.15;5.15;;;;;;;14.88;83.70;102085.75;5054262;28;20021;-35
2022/10/04 10:03:45;;;;;;;11.82;5.05;;;;;;;15.00;81.74;102070.31;5054148;28;20024;-35
2022/10/04 10:06:22;;;;;;;9.23;4.68;;;;;;;15.02;81.56;102070.88;4965980;28;20043;-35
2022/10/04 10:16:00;;;;;;;11.27;5.13;;;;;;;15.30;79.81;102064.00;4973332;28;20197;-35
2022/10/04 10:18:47;;;;;;;8.25;4.50;;;;;;;15.38;79.68;102060.94;4972904;28;20106;-35
2022/10/04 10:21:43;;;;;;;8.75;4.57;;;;;;;15.51;78.70;102057.16;4973331;28;20105;-35
2022/10/04 10:24:25;;;;;;;6.93;3.83;;;;;;;15.56;78.29;102047.22;4973362;28;20030;-35
2022/10/04 10:27:06;;;;;;;8.18;4.60;;;;;;;15.61;77.39;102051.97;4973117;28;20470;-36
2022/10/04 10:29:58;;;;;;;9.63;4.20;;;;;;;15.67;76.72;102046.44;4973408;28;20602;-36
2022/10/04 10:32:39;;;;;;;10.10;4.57;;;;;;;15.73;77.48;102050.13;4972727;28;20483;-35
2022/10/04 10:35:26;;;;;;;6.95;3.83;;;;;;;15.72;75.53;102050.38;4972803;28;20043;-35
2022/10/04 10:38:28;;;;;;;6.60;4.25;;;;;;;15.85;76.24;102061.03;4973189;28;20112;-35
2022/10/04 10:41:05;;;;;;;7.35;3.83;;;;;;;15.99;76.16;102048.81;4906979;28;20388;-35
2022/10/04 10:43:45;;;;;;;7.28;3.90;;;;;;;16.15;75.72;102060.91;4972988;28;20097;-35
2022/10/04 10:46:10;;;;;;;7.07;4.13;;;;;;;16.08;72.86;102057.47;4973047;28;20472;-35
2022/10/04 10:48:39;;;;;;;;;;;;;;;16.23;74.94;102060.56;4973131;28;20077;-35
2022/10/04 10:51:55;;;;;;;8.18;4.10;;;;;;;16.32;74.95;102072.75;4972070;28;19922;-35
2022/10/04 10:54:51;;;;;;;5.43;3.58;;;;;;;16.54;75.44;102072.13;4896212;29;20057;-35
2022/10/04 10:57:54;;;;;;;6.80;3.88;;;;;;;16.56;73.85;102062.63;4896308;29;20120;-35
2022/10/04 11:00:29;;;;;;;10.23;3.83;;;;;;;16.42;73.02;102051.13;4896511;29;20104;-35
2022/10/04 11:03:17;;;;;;;5.60;3.53;;;;;;;16.33;71.70;102043.56;4915502;29;20036;-35
2022/10/04 11:06:06;;;;;;;6.65;4.03;;;;;;;16.26;72.07;102051.91;4914289;29;20036;-35
2022/10/04 11:08:55;;;;;;;8.23;4.22;;;;;;;16.23;72.05;102044.19;4915067;29;20035;-35
2022/10/04 11:11:21;;;;;;;7.80;3.92;;;;;;;16.30;72.08;102044.03;4914796;29;20046;-35
2022/10/04 11:13:59;;;;;;;;;;;;;;;16.45;73.34;102028.81;4915179;29;20040;-35
2022/10/04 11:17:02;;;;;;;5.95;3.28;;;;;;;16.61;73.01;102040.06;4915145;29;20015;-35
2022/10/04 11:20:05;;;;;;;9.70;3.67;;;;;;;16.62;72.66;102030.78;4952989;29;20045;-35
2022/10/04 11:23:12;;;;;;;9.45;4.68;;;;;;;16.67;72.65;102026.25;4952843;29;20047;-35
2022/10/04 11:25:45;;;;;;;8.18;3.80;;;;;;;16.70;70.91;102020.31;4934361;29;20118;-36
2022/10/04 11:28:23;;;;;;;7.18;4.00;;;;;;;16.71;70.63;102010.22;4933611;29;20238;-35
2022/10/04 11:30:57;;;;;;;6.55;3.60;;;;;;;16.89;70.27;102011.97;5008158;28;20375;-35
2022/10/04 11:33:53;;;;;;;7.22;3.20;;;;;;;17.01;70.49;102007.25;5011204;28;20422;-34
2022/10/04 11:36:26;;;;;;;4.95;3.17;;;;;;;17.12;69.25;102013.72;5004285;28;20584;-35
2022/10/04 11:39:13;;;;;;;7.25;3.58;;;;;;;17.17;69.43;102002.88;5011247;28;20026;-35
2022/10/04 11:42:06;;;;;;;5.80;3.30;;;;;;;17.27;69.15;102004.97;5010899;28;20041;-35
2022/10/04 11:44:40;;;;;;;7.95;3.15;;;;;;;17.30;67.67;101993.53;5010820;28;20030;-35
2022/10/04 11:47:11;;;;;;;9.13;3.72;;;;;;;17.42;68.56;101991.53;5011062;28;20029;-35
2022/10/04 11:50:04;;;;;;;4.25;3.00;;;;;;;17.55;67.74;101991.22;5011330;28;20464;-35
2022/10/04 11:53:26;;;;;;;7.65;2.83;;;;;;;17.44;67.67;101978.47;5025443;28;20064;-35
2022/10/04 11:56:04;;;;;;;7.47;3.00;;;;;;;17.29;66.45;101972.75;5030463;28;20049;-35
2022/10/04 11:58:47;;;;;;;6.47;2.50;;;;;;;17.33;66.04;101990.31;5014279;28;20470;-35
2022/10/04 12:01:50;;;;;;;5.15;2.63;;;;;;;17.45;66.27;101988.31;5034328;28;20046;-35
2022/10/04 12:04:25;;;;;;;4.82;2.65;;;;;;;17.59;66.79;101988.81;5072963;28;20044;-35
2022/10/04 12:07:07;;;;;;;8.98;3.05;;;;;;;17.66;66.11;101987.53;5072703;28;20116;-35
2022/10/04 12:09:53;;;;;;;6.55;3.17;;;;;;;17.70;67.34;101985.97;5072256;28;20036;-35
2022/10/04 12:13:00;;;;;;;7.22;3.25;;;;;;;17.74;67.39;102000.84;5072862;28;20020;-35
2022/10/04 12:15:44;;;;;;;7.28;2.95;;;;;;;17.56;66.75;101981.91;5072610;28;20439;-35
2022/10/04 12:18:25;;;;;;;5.78;2.70;;;;;;;17.43;67.40;101976.81;5075222;28;20028;-35
2022/10/04 12:21:29;;;;;;;6.90;3.10;;;;;;;17.34;66.83;101989.25;5076518;28;20082;-36
2022/10/04 12:24:13;;;;;;;6.88;2.90;;;;;;;17.31;68.35;101970.59;5076090;28;20028;-35
2022/10/04 12:27:03;;;;;;;5.63;2.47;;;;;;;17.31;66.35;101967.84;5075749;28;20111;-36
2022/10/04 12:30:02;;;;;;;4.57;2.28;;;;;;;17.48;67.60;101979.63;5076332;28;20107;-35